• Join FlightAware (Why Join?)
  • Login
  • US Flag 
 
03:59PM EST


 

Airport Tracker/Info


-or-


 

Live Flight TrackerFlight Track Log ✈ SWA757 ✈ 16-Apr-2013 ✈ KSJC - KSAN

Flight Track Log - Related Links

Times and Time Zones

All times are in EDT time to prevent confusion due to time zone crossing. See the SWA757 flight status page for this flight to view local times or setup timezone preferences in your user account.

Time Position Orientation Groundspeed Altitude Reporting Facility
EDT Latitude Longitude Course Direction KTS MPH feet Rate Location/Type
11:32PM 37.4000 -121.9667 338° Northwest 167 192 3,600  Level Northern Cal TRACON
11:33PM 37.4333 -121.9833 338° Northwest 201 231 5,100 780 Climbing Northern Cal TRACON
11:34PM 37.4500 -121.9167 73° East 212 244 5,100 360 Level Northern Cal TRACON
11:35PM 37.4000 -121.8500 133° Southeast 240 276 5,900 2,520 Climbing Northern Cal TRACON
11:37PM 37.3097 -121.7500 139° Southeast 307 353 12,200 3,780 Climbing Oakland Center
11:38PM 37.2353 -121.6700 139° Southeast 350 403 16,100 3,420 Climbing Oakland Center
11:39PM 37.1517 -121.5750 138° Southeast 404 465 19,200 3,120 Climbing Oakland Center
11:40PM 37.0511 -121.4672 139° Southeast 448 516 22,500 3,120 Climbing Oakland Center
11:41PM 36.9500 -121.3567 139° Southeast 480 552 25,600 2,880 Climbing Oakland Center
11:42PM 36.8439 -121.2408 139° Southeast 503 579 28,400 2,580 Climbing Oakland Center
11:43PM 36.7442 -121.1369 140° Southeast 508 585 30,900 1,260 Climbing Oakland Center
11:44PM 36.6350 -121.0239 140° Southeast 511 588 31,000 -720 Climbing Oakland Center
11:45PM 36.5061 -120.8822 139° Southeast 513 590 29,500 -1,020 Descending Oakland Center
11:46PM 36.3981 -120.7667 139° Southeast 512 589 29,000 -300 Descending Oakland Center
11:47PM 36.2867 -120.6494 140° Southeast 523 602 29,000  Level Oakland Center
11:48PM 36.1725 -120.5306 140° Southeast 532 612 29,000  Level Oakland Center
11:49PM 36.0592 -120.4078 139° Southeast 539 620 29,000  Level Oakland Center
11:50PM 35.9464 -120.2908 140° Southeast 529 609 29,000  Level Oakland Center
11:51PM 35.8331 -120.1736 140° Southeast 528 608 29,000  Level Oakland Center
11:52PM 35.7225 -120.0581 140° Southeast 519 597 29,000  Level Oakland Center
11:53PM 35.6106 -119.9469 141° Southeast 513 590 29,000  Level Oakland Center
11:54PM 35.4925 -119.8456 145° Southeast 511 588 29,000  Level Oakland Center
11:55PM 35.3742 -119.7442 145° Southeast 512 589 29,000  Level Oakland Center
11:56PM 35.2569 -119.6431 145° Southeast 512 589 29,000  Level Oakland Center
11:57PM 35.1408 -119.5431 145° Southeast 509 586 29,000  Level Oakland Center
11:58PM 35.0250 -119.4442 145° Southeast 508 585 29,000  Level Oakland Center
11:59PM 34.9089 -119.3450 145° Southeast 508 585 29,000  Level Oakland Center
12:00AM 34.7700 -119.2264 145° Southeast 507 583 29,000  Level Los Angeles Center
12:01AM 34.6550 -119.1306 146° Southeast 500 575 29,000  Level Los Angeles Center
12:02AM 34.5375 -119.0336 146° Southeast 493 567 29,000  Level Los Angeles Center
12:03AM 34.4256 -118.9400 145° Southeast 489 563 29,000  Level Los Angeles Center
12:04AM 34.3164 -118.8414 143° Southeast 491 565 29,000 -60 Level Los Angeles Center
12:05AM 34.2125 -118.7294 138° Southeast 499 574 28,900 -600 Descending Los Angeles Center
12:06AM 34.1106 -118.6203 138° Southeast 491 565 27,800 -960 Descending Los Angeles Center
12:07AM 34.0128 -118.5169 139° Southeast 470 541 27,000 -420 Descending Los Angeles Center
12:08AM 33.9200 -118.4158 138° Southeast 451 519 27,000  Level Los Angeles Center
12:09AM 33.8844 -118.2647 106° East 473 544 27,000 -180 Level Los Angeles Center
12:10AM 33.8206 -118.1300 120° Southeast 469 540 26,700 -660 Descending Los Angeles Center
12:11AM 33.7189 -118.0442 145° Southeast 446 513 25,700 -900 Descending Los Angeles Center
12:13AM 33.6144 -117.9567 145° Southeast 451 519 24,900 -1,140 Descending Los Angeles Center
12:14AM 33.4903 -117.8494 144° Southeast 453 521 23,400 -1,680 Descending Los Angeles Center
12:14AM 33.4167 -117.7833 143° Southeast 440 506 22,000 -2,100 Descending Southern California TRACON
12:15AM 33.3333 -117.6667 131° Southeast 433 498 19,800 -2,160 Descending Southern California TRACON
12:16AM 33.3158 -117.6486 139° Southeast 432 497 19,200 -2,220 Descending Los Angeles Center
12:16AM 33.2500 -117.5667 134° Southeast 424 488 17,600 -2,280 Descending Southern California TRACON
12:17AM 33.1667 -117.5000 146° Southeast 411 473 15,400 -2,040 Descending Southern California TRACON
12:18AM 33.0833 -117.4167 140° Southeast 379 436 13,500 -1,860 Descending Southern California TRACON
12:19AM 33.0533 -117.4019 158° South 389 448 12,900 -2,520 Descending Los Angeles Center
12:19AM 33.0000 -117.3500 141° Southeast 372 428 11,000 -2,040 Descending Southern California TRACON
12:20AM 32.9167 -117.3000 153° Southeast 327 376 9,800 -1,680 Descending Southern California TRACON
12:21AM 32.8333 -117.2333 146° Southeast 306 352 7,700 -1,800 Descending Southern California TRACON
12:22AM 32.8233 -117.2178 127° Southeast 307 353 7,100 -1,200 Descending Los Angeles Center
12:23AM 32.7919 -117.1219 111° Southeast 273 314 6,000 -780 Descending Los Angeles Center
12:23AM 32.7833 -117.0833 105° East 252 290 6,000 -600 Level Southern California TRACON
12:24AM 32.7667 -117.0000 103° East 242 278 5,100 -600 Descending Southern California TRACON
12:25AM 32.7167 -116.9333 132° Southeast 237 273 4,800 -600 Descending Southern California TRACON
12:26AM 32.6833 -116.9667 220° Southwest 204 235 4,000 -780 Descending Southern California TRACON
12:27AM 32.7000 -117.0333 287° West 150 173 3,200 -900 Descending Southern California TRACON
12:28AM 32.7000 -117.0667 270° West 150 173 2,300 -960 Descending Southern California TRACON
12:29AM 32.7167 -117.1167 292° West 132 152 1,400 -840 Descending Southern California TRACON
12:30AM 32.7189 -117.1272 284° West 136 157 1,000 -720 Descending Los Angeles Center
12:31AM 32.7286 -117.1658 287° West 128 147 300 -720 Descending Los Angeles Center
12:33AM 32.7333 -117.1833 258° West  Level FlightAware Approximate